Time;durP1;ratioP1;P1;durP2;ratioP2;P2;SDS_P1;SDS_P2;PMS_P1;PMS_P2;Temp;Humidity;BMP_temperature;BMP_pressure;BME280_temperature;BME280_humidity;BME280_pressure;Samples;Min_cycle;Max_cycle;Signal;HPM_P1;HPM_P2
2022/11/17 00:00:01;;;;;;;4.72;2.87;;;8.80;65.60;;;;;;2357928;57;21045;-57
2022/11/17 00:02:28;;;;;;;4.85;2.85;;;8.80;65.80;;;;;;2358459;57;21048;-54
2022/11/17 00:04:55;;;;;;;4.12;2.95;;;8.80;65.80;;;;;;2358277;57;21466;-58
2022/11/17 00:07:22;;;;;;;3.62;2.75;;;8.80;65.80;;;;;;2358284;57;21104;-51
2022/11/17 00:09:49;;;;;;;4.90;3.20;;;8.80;65.80;;;;;;2358488;57;21053;-56
2022/11/17 00:15:03;;;;;;;3.50;2.90;;;8.80;65.90;;;;;;2358457;57;21049;-55
2022/11/17 00:17:30;;;;;;;4.57;2.92;;;8.80;66.00;;;;;;2358055;57;21516;-56
2022/11/17 00:22:43;;;;;;;5.30;3.67;;;8.70;66.10;;;;;;2358260;57;21041;-55
2022/11/17 00:25:10;;;;;;;6.90;3.70;;;8.70;66.20;;;;;;2358060;57;21128;-57
2022/11/17 00:27:38;;;;;;;4.80;3.50;;;8.70;66.10;;;;;;2358304;57;21101;-52
2022/11/17 00:30:08;;;;;;;4.68;3.20;;;8.70;66.10;;;;;;2358360;57;21045;-57
2022/11/17 00:35:20;;;;;;;5.50;3.08;;;8.70;65.90;;;;;;2358003;57;22207;-53
2022/11/17 00:40:34;;;;;;;4.45;3.47;;;8.70;66.30;;;;;;2607773;53;21044;-54
2022/11/17 00:43:01;;;;;;;4.45;3.30;;;8.70;66.10;;;;;;2358097;57;21059;-56
2022/11/17 00:45:28;;;;;;;5.25;3.83;;;8.70;66.10;;;;;;2358505;57;21092;-53
2022/11/17 00:47:56;;;;;;;4.45;3.08;;;8.70;66.20;;;;;;2358351;57;21069;-57
2022/11/17 00:50:23;;;;;;;7.40;4.37;;;8.70;66.00;;;;;;2358141;57;21591;-51
2022/11/17 00:52:50;;;;;;;5.55;4.07;;;8.70;66.00;;;;;;2357978;57;21575;-57
2022/11/17 00:55:17;;;;;;;6.40;3.83;;;8.70;65.70;;;;;;2358337;57;21052;-52
2022/11/17 00:57:45;;;;;;;7.32;4.10;;;8.60;65.70;;;;;;2358209;57;21100;-52
2022/11/17 01:00:13;;;;;;;4.50;3.75;;;8.60;66.20;;;;;;2358301;57;21052;-57
2022/11/17 01:02:41;;;;;;;6.30;3.90;;;8.60;65.80;;;;;;2358080;57;21057;-54
2022/11/17 01:05:09;;;;;;;8.13;3.65;;;8.60;65.70;;;;;;2358316;57;21140;-56
2022/11/17 01:07:36;;;;;;;5.47;4.00;;;8.60;65.90;;;;;;2358410;57;21119;-54
2022/11/17 01:10:04;;;;;;;14.95;4.12;;;8.60;65.90;;;;;;2357636;57;21064;-56
2022/11/17 01:12:32;;;;;;;6.70;4.15;;;8.60;67.00;;;;;;2358376;57;21517;-56
2022/11/17 01:14:59;;;;;;;5.95;4.05;;;8.60;66.20;;;;;;2358354;57;21057;-56
2022/11/17 01:17:26;;;;;;;6.00;4.30;;;8.50;66.00;;;;;;2358347;57;21077;-56
2022/11/17 01:19:53;;;;;;;5.90;4.45;;;8.50;66.10;;;;;;2358288;57;21049;-57
2022/11/17 01:22:20;;;;;;;6.80;4.30;;;8.50;66.30;;;;;;2358162;57;21124;-54
2022/11/17 01:24:48;;;;;;;5.68;4.22;;;8.50;66.20;;;;;;2358094;57;21053;-54
2022/11/17 01:27:15;;;;;;;6.03;4.28;;;8.50;66.30;;;;;;2358253;57;21539;-57
2022/11/17 01:29:42;;;;;;;7.05;4.72;;;8.50;66.30;;;;;;2358330;57;21056;-54
2022/11/17 01:32:09;;;;;;;6.30;4.62;;;8.40;66.20;;;;;;2358133;57;21592;-54
2022/11/17 01:34:36;;;;;;;5.90;4.30;;;8.40;67.00;;;;;;2358358;57;21088;-55
2022/11/17 01:37:19;;;;;;;6.12;4.93;;;8.40;66.30;;;;;;2358436;57;21176;-53
2022/11/17 01:39:46;;;;;;;7.18;5.45;;;8.40;66.60;;;;;;2358210;57;22123;-56
2022/11/17 01:42:17;;;;;;;7.87;5.03;;;8.40;66.60;;;;;;2357709;57;21657;-54
2022/11/17 01:44:55;;;;;;;7.32;5.00;;;8.40;67.00;;;;;;2358172;57;21017;-53
2022/11/17 01:47:26;;;;;;;7.87;4.80;;;8.40;66.70;;;;;;2358274;57;21053;-53
2022/11/17 01:49:58;;;;;;;7.10;4.70;;;8.40;66.70;;;;;;2358447;57;21196;-54
2022/11/17 01:52:27;;;;;;;7.70;5.20;;;8.30;66.60;;;;;;2358344;57;21528;-54
2022/11/17 01:54:56;;;;;;;7.12;5.65;;;8.30;66.50;;;;;;2358003;57;21045;-56
2022/11/17 01:57:28;;;;;;;8.25;5.70;;;8.30;66.50;;;;;;2357973;57;21145;-60
2022/11/17 01:59:58;;;;;;;6.10;4.93;;;8.20;66.40;;;;;;2358140;57;21056;-55
2022/11/17 02:02:26;;;;;;;7.15;5.40;;;8.20;66.60;;;;;;2357815;57;21635;-57
2022/11/17 02:05:01;;;;;;;7.15;4.90;;;8.20;66.80;;;;;;2358519;57;21706;-57
2022/11/17 02:07:31;;;;;;;6.40;4.90;;;8.20;67.10;;;;;;2357992;57;21810;-56
2022/11/17 02:10:00;;;;;;;9.55;5.53;;;8.20;66.80;;;;;;2358070;57;21053;-55
2022/11/17 02:12:30;;;;;;;8.95;5.37;;;8.20;66.70;;;;;;2358445;57;21524;-53
2022/11/17 02:14:57;;;;;;;8.38;5.75;;;8.20;66.80;;;;;;2357887;57;21547;-52
2022/11/17 02:17:36;;;;;;;8.27;6.22;;;8.10;66.70;;;;;;2358112;57;21713;-54
2022/11/17 02:20:07;;;;;;;9.32;6.50;;;8.10;66.60;;;;;;2358258;57;21531;-51
2022/11/17 02:23:21;;;;;;;8.57;5.82;;;8.00;66.60;;;;;;2358064;57;21187;-58
2022/11/17 02:26:02;;;;;;;7.25;5.85;;;8.00;67.00;;;;;;2274870;57;21651;-52
2022/11/17 02:28:30;;;;;;;8.60;6.03;;;8.00;66.80;;;;;;2358200;57;21544;-55
2022/11/17 02:31:13;;;;;;;8.25;6.05;;;8.00;66.90;;;;;;2358170;57;21524;-57
2022/11/17 02:33:58;;;;;;;11.27;6.47;;;7.90;66.90;;;;;;2358309;57;21112;-57
2022/11/17 02:36:34;;;;;;;6.90;5.85;;;8.00;67.10;;;;;;2358214;57;21056;-57
2022/11/17 02:39:10;;;;;;;7.43;5.47;;;7.90;67.00;;;;;;2357970;57;22200;-55
2022/11/17 02:41:44;;;;;;;11.45;6.30;;;7.90;67.20;;;;;;2358360;57;21590;-54
2022/11/17 02:44:16;;;;;;;9.05;6.55;;;7.90;67.10;;;;;;2358054;57;21527;-53
2022/11/17 02:46:47;;;;;;;8.77;6.62;;;7.90;67.20;;;;;;2357058;57;21178;-57
2022/11/17 02:49:19;;;;;;;8.73;5.85;;;7.90;66.80;;;;;;2358142;57;21112;-53
2022/11/17 02:51:51;;;;;;;8.88;5.82;;;7.80;66.90;;;;;;2358321;57;21136;-58
2022/11/17 02:54:20;;;;;;;9.15;6.53;;;7.80;67.10;;;;;;2358163;57;21133;-58
2022/11/17 02:56:47;;;;;;;7.45;5.85;;;7.80;66.70;;;;;;2357929;57;21599;-54
2022/11/17 02:59:18;;;;;;;6.95;5.65;;;7.80;67.00;;;;;;2357892;57;21045;-52
2022/11/17 03:02:02;;;;;;;9.65;5.87;;;7.80;67.10;;;;;;2358390;57;21519;-54
2022/11/17 03:04:36;;;;;;;8.02;5.93;;;7.70;66.80;;;;;;2357896;57;22184;-52
2022/11/17 03:07:17;;;;;;;9.15;5.68;;;7.70;67.00;;;;;;2358221;57;22151;-53
2022/11/17 03:09:54;;;;;;;7.22;5.78;;;7.70;67.10;;;;;;2357756;57;21489;-54
2022/11/17 03:12:28;;;;;;;6.75;5.25;;;7.70;67.20;;;;;;2358228;57;21557;-52
2022/11/17 03:15:02;;;;;;;8.18;6.15;;;7.70;67.30;;;;;;2358353;57;21544;-54
2022/11/17 03:17:35;;;;;;;8.35;6.35;;;7.70;67.20;;;;;;2358303;57;21092;-53
2022/11/17 03:20:07;;;;;;;;;;;7.60;67.30;;;;;;2361733;57;21132;-55
2022/11/17 03:22:42;;;;;;;8.82;6.20;;;7.70;67.50;;;;;;2358188;57;20361;-55
2022/11/17 03:25:14;;;;;;;7.68;5.75;;;7.60;66.90;;;;;;2357775;57;21517;-56
2022/11/17 03:27:46;;;;;;;9.63;6.12;;;7.60;67.20;;;;;;2358130;57;21527;-53
2022/11/17 03:30:15;;;;;;;7.70;5.97;;;7.60;67.60;;;;;;2357916;57;21057;-55
2022/11/17 03:32:47;;;;;;;9.25;6.32;;;7.60;67.70;;;;;;2358427;57;21144;-55
2022/11/17 03:35:18;;;;;;;8.50;6.18;;;7.60;67.40;;;;;;2358485;57;21144;-54
2022/11/17 03:37:48;;;;;;;9.10;5.87;;;7.60;67.40;;;;;;2358415;57;21520;-54
2022/11/17 03:40:19;;;;;;;9.80;5.78;;;7.50;67.40;;;;;;2357921;57;21060;-55
2022/11/17 03:42:51;;;;;;;7.05;6.05;;;7.50;67.40;;;;;;2358187;57;21557;-55
2022/11/17 03:45:22;;;;;;;10.80;6.62;;;7.50;67.20;;;;;;2358380;57;21123;-55
2022/11/17 03:47:56;;;;;;;9.80;6.40;;;7.50;67.40;;;;;;2358409;57;21145;-56
2022/11/17 03:50:27;;;;;;;9.38;6.65;;;7.50;67.40;;;;;;2358453;57;21580;-55
2022/11/17 03:52:55;;;;;;;10.48;6.20;;;7.40;67.40;;;;;;2358291;57;21137;-54
2022/11/17 03:55:25;;;;;;;10.35;6.53;;;7.40;67.50;;;;;;2358172;57;21543;-55
2022/11/17 03:57:56;;;;;;;10.45;6.32;;;7.40;67.70;;;;;;2357909;57;21510;-54
2022/11/17 04:00:24;;;;;;;8.95;6.45;;;7.40;67.70;;;;;;2358239;57;21611;-53
2022/11/17 04:02:57;;;;;;;10.35;6.85;;;7.40;67.70;;;;;;2358213;57;21638;-52
2022/11/17 04:05:25;;;;;;;9.02;6.55;;;7.40;67.70;;;;;;2358576;57;21037;-53
2022/11/17 04:07:52;;;;;;;8.82;6.62;;;7.40;67.70;;;;;;2358421;57;21583;-56
2022/11/17 04:10:21;;;;;;;12.95;6.47;;;7.40;67.70;;;;;;2358182;57;21068;-57
2022/11/17 04:18:22;;;;;;;7.28;5.82;;;7.50;67.60;;;;;;2358427;57;20981;-54
2022/11/17 04:20:51;;;;;;;8.70;6.70;;;7.40;67.60;;;;;;2358030;57;21497;-53
2022/11/17 04:23:19;;;;;;;7.45;6.20;;;7.40;67.70;;;;;;2358618;57;21606;-54
2022/11/17 04:28:38;;;;;;;9.15;7.05;;;7.40;67.50;;;;;;2357866;57;21005;-57
2022/11/17 04:31:08;;;;;;;9.48;6.95;;;7.40;67.30;;;;;;2358179;57;21132;-57
2022/11/17 04:33:36;;;;;;;8.90;6.87;;;7.40;67.50;;;;;;2358140;57;21615;-54
2022/11/17 04:36:05;;;;;;;9.15;6.60;;;7.40;67.80;;;;;;2358438;57;21124;-54
2022/11/17 04:38:33;;;;;;;8.88;6.62;;;7.40;67.80;;;;;;2358504;57;21096;-53
2022/11/17 04:43:52;;;;;;;9.73;6.68;;;7.30;67.70;;;;;;2358529;57;21045;-55
2022/11/17 04:46:21;;;;;;;12.48;7.65;;;7.40;67.90;;;;;;2358164;57;21100;-57
2022/11/17 04:48:49;;;;;;;9.98;7.18;;;7.40;67.80;;;;;;2358059;57;21587;-54
2022/11/17 04:51:17;;;;;;;9.77;6.90;;;7.30;67.50;;;;;;2358468;57;21121;-57
2022/11/17 04:53:45;;;;;;;10.07;7.12;;;7.30;67.90;;;;;;2358100;57;21532;-55
2022/11/17 04:56:12;;;;;;;11.85;7.62;;;7.40;68.00;;;;;;2358245;57;21540;-54
2022/11/17 04:58:40;;;;;;;9.82;7.18;;;7.30;67.50;;;;;;2358311;57;21500;-58
2022/11/17 05:01:11;;;;;;;10.73;6.95;;;7.30;67.50;;;;;;2358110;57;21052;-54
2022/11/17 05:03:41;;;;;;;10.80;7.32;;;7.20;67.40;;;;;;2358294;57;21037;-57
2022/11/17 05:06:09;;;;;;;9.90;6.93;;;7.20;67.70;;;;;;2357651;57;21041;-54
2022/11/17 05:08:37;;;;;;;10.85;7.37;;;7.20;68.00;;;;;;2358167;57;21538;-54
2022/11/17 05:13:53;;;;;;;9.85;7.57;;;7.20;68.10;;;;;;2531210;53;21020;-54
2022/11/17 05:19:09;;;;;;;10.02;7.00;;;7.20;68.00;;;;;;2358148;57;21025;-52
2022/11/17 05:21:37;;;;;;;14.40;9.40;;;7.20;68.20;;;;;;2358330;57;21587;-53
2022/11/17 05:24:06;;;;;;;11.55;7.45;;;7.10;68.10;;;;;;2357967;57;21658;-56
2022/11/17 05:26:35;;;;;;;11.20;7.65;;;7.10;68.00;;;;;;2358176;57;21136;-57
2022/11/17 05:29:04;;;;;;;8.80;6.95;;;7.10;68.10;;;;;;2358050;57;21612;-57
2022/11/17 05:31:32;;;;;;;11.77;7.10;;;7.10;68.30;;;;;;2357233;57;21750;-58
2022/11/17 05:34:00;;;;;;;11.18;7.57;;;7.10;68.30;;;;;;2357447;57;21687;-54
2022/11/17 05:36:28;;;;;;;11.23;7.50;;;7.10;69.00;;;;;;2357989;57;21528;-58
2022/11/17 05:38:55;;;;;;;12.32;7.90;;;7.20;68.40;;;;;;2357805;57;21536;-56
2022/11/17 05:41:23;;;;;;;12.65;8.50;;;7.20;68.30;;;;;;2357602;57;21560;-55
2022/11/17 05:43:51;;;;;;;9.90;7.40;;;7.20;68.00;;;;;;2357632;57;21662;-57
2022/11/17 05:46:20;;;;;;;11.68;8.00;;;7.20;67.90;;;;;;2356889;57;21753;-57
2022/11/17 05:48:49;;;;;;;11.30;8.10;;;7.10;67.80;;;;;;2358198;57;21666;-54
2022/11/17 05:51:17;;;;;;;10.50;7.45;;;7.20;68.20;;;;;;2357279;57;21121;-57
2022/11/17 05:53:44;;;;;;;10.60;7.68;;;7.20;68.20;;;;;;2358097;57;21618;-53
2022/11/17 05:56:31;;;;;;;13.70;8.75;;;7.20;68.10;;;;;;2357686;57;21421;-56
2022/11/17 05:59:09;;;;;;;10.57;8.15;;;7.20;68.10;;;;;;2357669;57;21540;-56
2022/11/17 06:01:39;;;;;;;12.60;7.95;;;7.20;67.80;;;;;;2358124;57;21523;-54
2022/11/17 06:04:08;;;;;;;13.25;9.15;;;7.10;67.80;;;;;;2357891;57;21065;-52
2022/11/17 06:06:36;;;;;;;14.00;9.65;;;7.10;67.70;;;;;;2358021;57;21563;-54
2022/11/17 06:09:04;;;;;;;11.43;7.95;;;7.10;67.70;;;;;;2357876;57;21575;-51
2022/11/17 06:11:32;;;;;;;12.60;8.75;;;7.10;68.00;;;;;;2357827;57;21080;-53
2022/11/17 06:14:00;;;;;;;18.77;8.77;;;7.00;68.00;;;;;;2357418;57;21046;-54
2022/11/17 06:16:29;;;;;;;11.52;8.02;;;7.00;67.80;;;;;;2358071;57;21140;-56
2022/11/17 06:19:02;;;;;;;10.82;7.35;;;6.90;67.80;;;;;;2357975;57;21132;-53
2022/11/17 06:21:30;;;;;;;11.48;8.48;;;6.90;68.20;;;;;;2358327;57;21045;-55
2022/11/17 06:23:59;;;;;;;12.93;8.25;;;6.90;68.40;;;;;;2358516;57;21093;-53
2022/11/17 06:26:26;;;;;;;12.65;8.40;;;6.90;69.10;;;;;;2358300;57;21049;-55
2022/11/17 06:28:55;;;;;;;10.70;8.27;;;6.90;68.60;;;;;;2357975;57;21061;-55
2022/11/17 06:31:24;;;;;;;13.52;8.88;;;6.90;68.50;;;;;;2357733;57;21116;-56
2022/11/17 06:33:51;;;;;;;11.32;7.97;;;6.90;68.40;;;;;;2357999;57;21077;-54
2022/11/17 06:36:19;;;;;;;12.68;8.43;;;6.90;68.80;;;;;;2358126;57;21536;-55
2022/11/17 06:38:47;;;;;;;11.98;8.60;;;6.90;68.80;;;;;;2357919;57;21100;-57
2022/11/17 06:41:14;;;;;;;10.40;8.35;;;6.80;69.70;;;;;;2357835;57;21634;-54
2022/11/17 06:43:42;;;;;;;14.13;8.40;;;6.80;69.30;;;;;;2357866;57;21104;-54
2022/11/17 06:46:09;;;;;;;12.82;8.90;;;6.80;69.00;;;;;;2357581;57;21144;-57
2022/11/17 06:48:36;;;;;;;14.48;9.43;;;6.80;68.80;;;;;;2358063;57;21029;-51
2022/11/17 06:51:05;;;;;;;13.35;8.60;;;6.80;68.90;;;;;;2357789;57;21116;-57
2022/11/17 06:53:33;;;;;;;13.43;8.52;;;6.80;68.90;;;;;;2357811;57;21041;-53
2022/11/17 06:56:04;;;;;;;12.50;8.50;;;6.80;68.90;;;;;;2357807;57;21057;-53
2022/11/17 06:58:32;;;;;;;12.02;8.55;;;6.80;68.80;;;;;;2357904;57;21121;-54
2022/11/17 07:01:05;;;;;;;10.85;7.97;;;6.80;68.80;;;;;;2358009;57;21173;-54
2022/11/17 07:03:35;;;;;;;14.02;8.95;;;6.80;68.60;;;;;;2358168;57;21061;-55
2022/11/17 07:06:03;;;;;;;10.13;6.78;;;6.80;68.80;;;;;;2357212;57;21069;-55
2022/11/17 07:08:31;;;;;;;13.38;9.00;;;6.80;68.90;;;;;;2357286;57;21069;-54
2022/11/17 07:11:03;;;;;;;14.65;9.50;;;6.80;69.20;;;;;;2358037;57;21065;-53
2022/11/17 07:13:32;;;;;;;13.77;8.63;;;6.80;68.90;;;;;;2358147;57;21045;-57
2022/11/17 07:16:04;;;;;;;10.45;8.25;;;6.80;68.80;;;;;;2357964;57;21151;-53
2022/11/17 07:18:32;;;;;;;15.80;9.38;;;6.80;68.90;;;;;;2358114;57;21052;-56
2022/11/17 07:21:02;;;;;;;12.77;8.82;;;6.80;68.70;;;;;;2358385;57;21041;-54
2022/11/17 07:23:31;;;;;;;10.93;8.18;;;6.80;68.70;;;;;;2358169;57;21041;-53
2022/11/17 07:25:58;;;;;;;11.38;7.55;;;6.80;68.70;;;;;;2358124;57;21116;-54
2022/11/17 07:28:27;;;;;;;11.18;8.00;;;6.80;68.90;;;;;;2358209;57;21061;-53
2022/11/17 07:30:54;;;;;;;12.15;8.88;;;6.80;69.20;;;;;;2358221;57;21124;-55
2022/11/17 07:33:22;;;;;;;10.32;7.95;;;6.80;69.00;;;;;;2358553;57;21057;-56
2022/11/17 07:35:50;;;;;;;11.25;7.93;;;6.80;69.10;;;;;;2358463;57;21524;-64
2022/11/17 07:38:17;;;;;;;10.65;7.87;;;6.80;69.00;;;;;;2357269;57;21124;-65
2022/11/17 07:40:44;;;;;;;11.38;8.10;;;6.80;69.10;;;;;;2357414;57;21065;-54
2022/11/17 07:43:12;;;;;;;13.25;8.07;;;6.80;69.00;;;;;;2358075;57;21132;-57
2022/11/17 07:45:39;;;;;;;12.45;8.02;;;6.80;68.70;;;;;;2358183;57;21120;-56
2022/11/17 07:48:07;;;;;;;10.00;7.78;;;6.80;68.50;;;;;;2358055;57;21545;-56
2022/11/17 07:50:38;;;;;;;12.48;8.70;;;6.80;68.80;;;;;;2358499;57;21057;-53
2022/11/17 07:53:06;;;;;;;12.00;8.75;;;6.80;68.70;;;;;;2358146;57;21085;-54
2022/11/17 07:55:33;;;;;;;14.43;7.82;;;6.90;68.70;;;;;;2357730;57;21592;-55
2022/11/17 07:58:01;;;;;;;11.05;8.48;;;6.80;68.50;;;;;;2357722;57;21105;-51
2022/11/17 08:00:29;;;;;;;13.20;9.02;;;6.90;68.70;;;;;;2357079;57;21607;-52
2022/11/17 08:03:00;;;;;;;11.90;8.75;;;6.90;68.60;;;;;;2358269;57;21099;-54
2022/11/17 08:05:29;;;;;;;11.68;7.37;;;6.90;68.40;;;;;;2357780;57;21029;-57
2022/11/17 08:07:57;;;;;;;12.75;8.77;;;6.90;68.50;;;;;;2357574;57;21643;-55
2022/11/17 08:10:25;;;;;;;10.43;7.47;;;6.80;68.40;;;;;;2357787;57;21764;-54
2022/11/17 08:15:30;;;;;;;11.63;8.32;;;6.80;68.70;;;;;;2273779;59;22685;-56
2022/11/17 08:18:00;;;;;;;18.08;9.05;;;6.80;68.30;;;;;;2291572;58;21050;-57
2022/11/17 08:20:28;;;;;;;14.10;8.80;;;6.80;68.40;;;;;;2290922;58;21077;-52
2022/11/17 08:22:57;;;;;;;11.18;8.18;;;6.80;68.60;;;;;;2290527;58;21062;-57
2022/11/17 08:25:26;;;;;;;11.63;8.30;;;6.80;68.50;;;;;;2290989;58;21644;-54
2022/11/17 08:27:55;;;;;;;10.80;7.40;;;6.80;68.50;;;;;;2290243;58;21066;-55
2022/11/17 08:30:24;;;;;;;11.90;7.62;;;6.80;68.60;;;;;;2290422;58;21081;-54
2022/11/17 08:32:53;;;;;;;11.95;8.07;;;6.80;68.80;;;;;;2290145;58;21202;-58
2022/11/17 08:35:22;;;;;;;11.52;7.78;;;6.80;68.70;;;;;;2291085;58;21125;-54
2022/11/17 08:37:49;;;;;;;12.43;8.38;;;6.80;68.90;;;;;;2290914;58;21058;-59
2022/11/17 08:40:17;;;;;;;14.27;7.60;;;6.80;68.90;;;;;;2290861;58;21113;-54
2022/11/17 08:42:46;;;;;;;12.00;8.43;;;6.80;69.00;;;;;;2290579;58;21122;-54
2022/11/17 08:45:13;;;;;;;12.80;8.52;;;6.80;69.90;;;;;;2236929;56;21169;-58
2022/11/17 08:47:40;;;;;;;11.75;8.82;;;6.90;69.00;;;;;;2227585;60;21727;-60
2022/11/17 08:50:09;;;;;;;12.27;7.95;;;6.80;69.10;;;;;;2227031;60;21081;-59
2022/11/17 08:52:36;;;;;;;11.20;7.85;;;6.90;69.30;;;;;;2227082;60;21650;-57
2022/11/17 08:55:06;;;;;;;14.35;9.60;;;6.90;69.30;;;;;;2227313;60;21117;-59
2022/11/17 08:57:33;;;;;;;10.98;7.72;;;6.90;69.10;;;;;;2226611;60;21161;-60
2022/11/17 09:00:01;;;;;;;12.50;8.57;;;6.90;69.20;;;;;;2226979;60;21087;-59
2022/11/17 09:02:28;;;;;;;12.73;9.05;;;6.90;69.30;;;;;;2227302;60;21069;-59
2022/11/17 09:07:33;;;;;;;13.52;7.00;;;6.90;69.30;;;;;;2299716;58;22110;-58
2022/11/17 09:10:00;;;;;;;15.27;8.38;;;7.00;69.60;;;;;;2307687;58;21072;-59
2022/11/17 09:12:27;;;;;;;12.18;8.45;;;7.00;69.50;;;;;;2316890;58;21047;-58
2022/11/17 09:14:54;;;;;;;15.73;9.05;;;7.00;69.40;;;;;;2317624;58;21217;-58
2022/11/17 09:17:22;;;;;;;13.62;8.52;;;7.00;69.50;;;;;;2317988;58;22155;-59
2022/11/17 09:19:49;;;;;;;14.63;9.27;;;7.00;69.40;;;;;;2315910;58;21072;-58
2022/11/17 09:22:16;;;;;;;15.68;9.35;;;7.00;69.10;;;;;;2317597;58;21629;-57
2022/11/17 09:24:43;;;;;;;13.07;8.50;;;7.00;69.40;;;;;;2317155;58;21527;-58
2022/11/17 09:27:10;;;;;;;16.05;9.20;;;7.00;69.60;;;;;;2317795;58;21144;-58
2022/11/17 09:29:38;;;;;;;11.48;7.95;;;7.00;69.60;;;;;;2317855;58;21111;-57
2022/11/17 09:32:05;;;;;;;13.55;8.77;;;7.10;69.90;;;;;;2317484;58;21053;-57
2022/11/17 09:34:32;;;;;;;11.88;7.82;;;7.00;69.40;;;;;;2317724;58;21131;-58
2022/11/17 09:36:59;;;;;;;11.30;7.47;;;7.10;69.40;;;;;;2316743;58;21056;-58
2022/11/17 09:39:27;;;;;;;13.07;9.10;;;7.00;69.50;;;;;;2317259;58;21511;-58
2022/11/17 09:41:56;;;;;;;14.00;8.70;;;7.00;69.90;;;;;;2317039;58;21084;-58
2022/11/17 09:44:33;;;;;;;12.95;8.88;;;7.00;70.10;;;;;;2317887;58;21552;-57
2022/11/17 09:47:13;;;;;;;16.02;9.65;;;7.00;70.00;;;;;;2317508;58;21618;-57
2022/11/17 09:49:48;;;;;;;15.40;9.10;;;7.00;69.90;;;;;;2317632;58;21527;-58
2022/11/17 09:52:22;;;;;;;14.87;8.48;;;7.00;69.80;;;;;;2317041;58;21092;-57
2022/11/17 09:54:54;;;;;;;12.23;7.93;;;7.00;69.90;;;;;;2317959;58;21129;-58
2022/11/17 09:57:32;;;;;;;14.95;8.18;;;7.00;70.10;;;;;;2317393;58;21580;-59
2022/11/17 10:00:14;;;;;;;17.35;10.02;;;7.00;70.00;;;;;;2317182;58;21543;-58
2022/11/17 10:02:42;;;;;;;13.13;8.68;;;6.90;69.80;;;;;;2317912;58;21559;-58
2022/11/17 10:05:14;;;;;;;14.45;8.27;;;6.90;70.00;;;;;;2317067;58;21551;-59
2022/11/17 10:07:48;;;;;;;15.88;9.45;;;6.90;70.50;;;;;;2317885;58;21128;-58
2022/11/17 10:10:19;;;;;;;14.73;9.32;;;6.90;70.40;;;;;;2317805;58;21080;-57
2022/11/17 10:12:51;;;;;;;14.50;9.85;;;7.00;70.30;;;;;;2317454;58;21539;-57
2022/11/17 10:15:26;;;;;;;15.43;9.15;;;7.00;70.40;;;;;;2317663;58;21639;-57
2022/11/17 10:17:53;;;;;;;14.15;9.52;;;7.00;70.30;;;;;;2317070;58;21073;-58
2022/11/17 10:20:21;;;;;;;13.35;9.30;;;7.00;70.20;;;;;;2316493;58;21571;-59
2022/11/17 10:22:49;;;;;;;15.02;9.60;;;7.10;70.30;;;;;;2317084;58;21535;-57
2022/11/17 10:28:25;;;;;;;14.35;10.23;;;7.10;70.20;;;;;;2336476;57;27866;-58
2022/11/17 10:33:37;;;;;;;21.30;9.82;;;7.10;70.90;;;;;;2355730;57;22078;-58
2022/11/17 10:36:12;;;;;;;18.70;10.50;;;7.10;70.50;;;;;;2346984;57;21117;-59
2022/11/17 10:38:44;;;;;;;17.37;10.65;;;7.20;70.20;;;;;;2349762;56;21535;-58
2022/11/17 10:41:15;;;;;;;14.93;9.80;;;7.20;69.90;;;;;;2373770;56;21501;-58
2022/11/17 10:43:55;;;;;;;15.68;10.05;;;7.30;69.80;;;;;;2374787;56;21103;-59
2022/11/17 10:46:25;;;;;;;15.52;9.55;;;7.30;69.80;;;;;;2374718;56;21043;-60
2022/11/17 10:48:59;;;;;;;15.98;9.85;;;7.30;69.70;;;;;;2374562;56;21059;-60
2022/11/17 10:51:28;;;;;;;13.77;9.27;;;7.30;69.50;;;;;;2375513;56;21134;-59
2022/11/17 10:54:05;;;;;;;15.82;10.65;;;7.30;69.50;;;;;;2376138;56;21573;-60
2022/11/17 10:56:38;;;;;;;17.12;10.43;;;7.30;69.30;;;;;;2375780;56;21050;-60
2022/11/17 10:59:15;;;;;;;15.23;10.25;;;7.30;69.30;;;;;;2375285;56;21166;-58
2022/11/17 11:01:44;;;;;;;14.13;9.98;;;7.30;69.40;;;;;;2375724;56;21133;-59
2022/11/17 11:04:29;;;;;;;15.75;9.63;;;7.30;69.60;;;;;;2375002;56;21054;-58
2022/11/17 11:07:11;;;;;;;15.30;10.02;;;7.40;69.60;;;;;;2376017;56;21082;-60
2022/11/17 11:09:46;;;;;;;15.13;9.88;;;7.40;69.50;;;;;;2375561;56;21585;-60
2022/11/17 11:12:18;;;;;;;16.55;9.40;;;7.40;69.60;;;;;;2375745;56;21604;-60
2022/11/17 11:14:51;;;;;;;15.55;10.02;;;7.40;69.70;;;;;;2376205;56;21566;-60
2022/11/17 11:17:19;;;;;;;16.02;10.55;;;7.40;69.70;;;;;;2375696;56;21015;-61
2022/11/17 11:19:51;;;;;;;15.82;10.68;;;7.40;69.30;;;;;;2375329;56;21526;-60
2022/11/17 11:22:33;;;;;;;18.10;11.18;;;7.40;69.40;;;;;;2375625;56;21543;-60
2022/11/17 11:25:23;;;;;;;17.85;10.68;;;7.40;69.60;;;;;;2376026;56;21588;-58
2022/11/17 11:28:10;;;;;;;17.70;9.98;;;7.40;69.60;;;;;;2375369;56;21553;-61
2022/11/17 11:30:43;;;;;;;16.15;9.90;;;7.30;69.80;;;;;;2375857;56;21616;-60
2022/11/17 11:33:29;;;;;;;16.33;10.50;;;7.40;70.00;;;;;;2375015;56;22126;-60
2022/11/17 11:36:19;;;;;;;16.77;10.27;;;7.40;69.90;;;;;;2375470;56;21498;-60
2022/11/17 11:38:55;;;;;;;17.37;10.32;;;7.30;69.60;;;;;;2375547;56;21526;-59
2022/11/17 11:41:53;;;;;;;16.55;10.77;;;7.40;69.80;;;;;;2375624;56;21035;-60
2022/11/17 11:44:38;;;;;;;18.65;10.30;;;7.40;70.00;;;;;;2375265;56;21576;-60
2022/11/17 11:47:19;;;;;;;17.55;10.02;;;7.40;69.60;;;;;;2374458;56;21611;-60
2022/11/17 11:49:54;;;;;;;17.95;10.95;;;7.40;70.70;;;;;;2374331;56;21518;-60
2022/11/17 11:52:24;;;;;;;17.17;10.43;;;7.40;70.10;;;;;;2374826;56;21540;-58
2022/11/17 11:54:56;;;;;;;17.27;10.57;;;7.40;70.20;;;;;;2374400;56;21082;-59
2022/11/17 11:57:29;;;;;;;18.10;11.23;;;7.50;70.60;;;;;;2374902;56;21042;-60
2022/11/17 11:59:58;;;;;;;;;;;7.50;70.60;;;;;;2378350;56;21518;-59
2022/11/17 12:02:33;;;;;;;16.73;10.20;;;7.60;70.10;;;;;;2374562;56;20345;-59
2022/11/17 12:07:51;;;;;;;18.95;11.15;;;7.40;70.60;;;;;;2329092;57;22063;-59
2022/11/17 12:10:27;;;;;;;16.65;10.05;;;7.40;70.90;;;;;;2376241;56;21057;-60
2022/11/17 12:12:55;;;;;;;19.25;12.45;;;7.40;71.20;;;;;;2384545;56;21048;-61
2022/11/17 12:15:34;;;;;;;18.25;11.45;;;7.40;71.40;;;;;;2385572;56;21516;-59
2022/11/17 12:18:04;;;;;;;17.50;11.10;;;7.30;71.60;;;;;;2385832;56;21045;-59
2022/11/17 12:20:51;;;;;;;16.48;10.30;;;7.30;71.80;;;;;;2385678;56;21587;-60
2022/11/17 12:23:43;;;;;;;20.95;10.85;;;7.30;72.10;;;;;;2385899;56;21519;-59
2022/11/17 12:26:22;;;;;;;22.20;12.53;;;7.30;72.30;;;;;;2373072;56;21552;-59
2022/11/17 12:29:22;;;;;;;18.48;11.12;;;7.40;72.00;;;;;;2385359;56;21519;-58
2022/11/17 12:31:50;;;;;;;19.50;11.90;;;7.30;72.30;;;;;;2384821;56;21516;-59
2022/11/17 12:34:23;;;;;;;18.25;10.68;;;7.40;72.30;;;;;;2385779;56;21555;-59
2022/11/17 12:37:06;;;;;;;;;;;7.40;72.40;;;;;;2389408;56;21033;-59
2022/11/17 12:39:58;;;;;;;22.40;12.73;;;7.50;72.50;;;;;;2385632;56;20128;-59
2022/11/17 12:42:26;;;;;;;19.87;12.00;;;7.40;72.20;;;;;;2385496;56;21598;-60
2022/11/17 12:44:59;;;;;;;18.27;10.70;;;7.30;72.50;;;;;;2384895;56;21111;-59
2022/11/17 12:47:28;;;;;;;21.48;13.00;;;7.30;73.10;;;;;;2385473;56;21073;-61
2022/11/17 12:50:19;;;;;;;19.33;11.43;;;7.30;73.20;;;;;;2385601;56;21528;-59
2022/11/17 12:52:58;;;;;;;20.10;10.80;;;7.30;73.20;;;;;;2385424;56;21564;-59
2022/11/17 12:55:38;;;;;;;21.37;11.70;;;7.30;73.40;;;;;;2385853;56;21512;-59
2022/11/17 12:58:19;;;;;;;19.83;12.23;;;7.30;73.60;;;;;;2385676;56;21938;-58
2022/11/17 13:00:56;;;;;;;22.77;13.50;;;7.30;73.40;;;;;;2385584;56;21489;-58
2022/11/17 13:03:31;;;;;;;21.95;13.23;;;7.30;73.50;;;;;;2385029;56;21117;-59
2022/11/17 13:06:09;;;;;;;20.40;12.05;;;7.30;73.60;;;;;;2385743;56;21652;-59
2022/11/17 13:08:37;;;;;;;22.73;12.43;;;7.30;73.80;;;;;;2385845;56;21476;-59
2022/11/17 13:11:06;;;;;;;19.27;11.68;;;7.30;73.80;;;;;;2385581;56;21128;-59
2022/11/17 13:13:34;;;;;;;19.33;11.30;;;7.40;74.00;;;;;;2385835;56;21109;-59
2022/11/17 13:16:01;;;;;;;22.95;12.40;;;7.40;74.10;;;;;;2385146;56;21041;-61
2022/11/17 13:18:32;;;;;;;19.85;11.32;;;7.40;74.10;;;;;;2384887;56;21492;-58
2022/11/17 13:21:00;;;;;;;20.90;12.30;;;7.40;74.20;;;;;;2384602;56;21512;-57
2022/11/17 13:23:29;;;;;;;21.33;12.82;;;7.30;74.10;;;;;;2384458;56;21049;-61
2022/11/17 13:26:10;;;;;;;22.83;12.77;;;7.30;74.10;;;;;;2384839;56;21584;-61
2022/11/17 13:28:38;;;;;;;19.95;12.10;;;7.20;74.20;;;;;;2384472;56;21156;-60
2022/11/17 13:31:05;;;;;;;24.73;14.60;;;7.20;74.20;;;;;;2384558;56;21037;-60
2022/11/17 13:33:33;;;;;;;23.08;13.62;;;7.20;74.50;;;;;;2384079;56;21060;-61
2022/11/17 13:36:16;;;;;;;24.85;12.80;;;7.20;74.70;;;;;;2384639;56;21049;-60
2022/11/17 13:38:51;;;;;;;25.67;12.15;;;7.20;74.80;;;;;;2384960;56;21512;-59
2022/11/17 13:41:21;;;;;;;25.58;13.05;;;7.10;74.90;;;;;;2384582;56;21618;-59
2022/11/17 13:43:49;;;;;;;22.62;13.05;;;7.10;75.00;;;;;;2384686;56;21624;-60
2022/11/17 13:46:16;;;;;;;25.92;14.23;;;7.20;75.30;;;;;;2384825;56;21717;-58
2022/11/17 13:48:45;;;;;;;20.67;12.27;;;7.20;75.30;;;;;;2384199;56;21010;-61